sensor_id;sensor_type;location;lat;lon;timestamp;temperature;humidity
6439;DHT22;3252;52.540;13.290;2022-08-21T00:00:01;19.60;99.90
6439;DHT22;3252;52.540;13.290;2022-08-21T00:02:15;19.60;99.90
6439;DHT22;3252;52.540;13.290;2022-08-21T00:04:19;19.60;99.90
6439;DHT22;3252;52.540;13.290;2022-08-21T00:06:23;19.60;99.90
6439;DHT22;3252;52.540;13.290;2022-08-21T00:08:26;19.60;99.90
6439;DHT22;3252;52.540;13.290;2022-08-21T00:10:29;19.60;99.90
6439;DHT22;3252;52.540;13.290;2022-08-21T00:12:31;19.60;99.90
6439;DHT22;3252;52.540;13.290;2022-08-21T00:14:33;19.60;99.90
6439;DHT22;3252;52.540;13.290;2022-08-21T00:16:36;19.60;99.90
6439;DHT22;3252;52.540;13.290;2022-08-21T00:18:39;19.50;99.90
6439;DHT22;3252;52.540;13.290;2022-08-21T00:20:43;19.50;99.90
6439;DHT22;3252;52.540;13.290;2022-08-21T00:22:46;19.50;99.90
6439;DHT22;3252;52.540;13.290;2022-08-21T00:24:50;19.50;99.90
6439;DHT22;3252;52.540;13.290;2022-08-21T00:26:52;19.40;99.90
6439;DHT22;3252;52.540;13.290;2022-08-21T00:28:54;19.40;99.90
6439;DHT22;3252;52.540;13.290;2022-08-21T00:30:56;19.40;99.90
6439;DHT22;3252;52.540;13.290;2022-08-21T00:32:59;19.40;99.90
6439;DHT22;3252;52.540;13.290;2022-08-21T00:35:02;19.40;99.90
6439;DHT22;3252;52.540;13.290;2022-08-21T00:37:04;19.40;99.90
6439;DHT22;3252;52.540;13.290;2022-08-21T00:39:08;19.40;99.90
6439;DHT22;3252;52.540;13.290;2022-08-21T00:41:12;19.40;99.90
6439;DHT22;3252;52.540;13.290;2022-08-21T00:43:18;19.40;99.90
6439;DHT22;3252;52.540;13.290;2022-08-21T00:45:21;19.40;99.90
6439;DHT22;3252;52.540;13.290;2022-08-21T00:47:24;19.40;99.90
6439;DHT22;3252;52.540;13.290;2022-08-21T00:49:26;19.40;99.90
6439;DHT22;3252;52.540;13.290;2022-08-21T00:51:34;19.40;99.90
6439;DHT22;3252;52.540;13.290;2022-08-21T00:53:40;19.40;99.90
6439;DHT22;3252;52.540;13.290;2022-08-21T00:55:42;19.40;99.90
6439;DHT22;3252;52.540;13.290;2022-08-21T00:57:49;19.40;99.90
6439;DHT22;3252;52.540;13.290;2022-08-21T00:59:54;19.30;99.90
6439;DHT22;3252;52.540;13.290;2022-08-21T01:01:57;19.30;99.90
6439;DHT22;3252;52.540;13.290;2022-08-21T01:03:59;19.30;99.90
6439;DHT22;3252;52.540;13.290;2022-08-21T01:06:02;19.30;99.90
6439;DHT22;3252;52.540;13.290;2022-08-21T01:08:06;19.30;99.90
6439;DHT22;3252;52.540;13.290;2022-08-21T01:10:09;19.30;99.90
6439;DHT22;3252;52.540;13.290;2022-08-21T01:12:12;19.30;99.90
6439;DHT22;3252;52.540;13.290;2022-08-21T01:14:15;19.30;99.90
6439;DHT22;3252;52.540;13.290;2022-08-21T01:16:20;19.30;99.90
6439;DHT22;3252;52.540;13.290;2022-08-21T01:18:23;19.30;99.90
6439;DHT22;3252;52.540;13.290;2022-08-21T01:20:25;19.30;99.90
6439;DHT22;3252;52.540;13.290;2022-08-21T01:22:29;19.30;99.90
6439;DHT22;3252;52.540;13.290;2022-08-21T01:24:31;19.30;99.90
6439;DHT22;3252;52.540;13.290;2022-08-21T01:26:35;19.30;99.90
6439;DHT22;3252;52.540;13.290;2022-08-21T01:28:45;19.20;99.90
6439;DHT22;3252;52.540;13.290;2022-08-21T01:30:48;19.20;99.90
6439;DHT22;3252;52.540;13.290;2022-08-21T01:32:52;19.20;99.90
6439;DHT22;3252;52.540;13.290;2022-08-21T01:34:55;19.20;99.90
6439;DHT22;3252;52.540;13.290;2022-08-21T01:36:57;19.10;99.90
6439;DHT22;3252;52.540;13.290;2022-08-21T01:39:00;19.10;99.90
6439;DHT22;3252;52.540;13.290;2022-08-21T01:41:02;19.10;99.90
6439;DHT22;3252;52.540;13.290;2022-08-21T01:43:04;19.10;99.90
6439;DHT22;3252;52.540;13.290;2022-08-21T01:45:08;19.10;99.90
6439;DHT22;3252;52.540;13.290;2022-08-21T01:47:13;19.10;99.90
6439;DHT22;3252;52.540;13.290;2022-08-21T01:49:15;19.10;99.90
6439;DHT22;3252;52.540;13.290;2022-08-21T01:51:17;19.00;99.90
6439;DHT22;3252;52.540;13.290;2022-08-21T01:53:20;19.00;99.90
6439;DHT22;3252;52.540;13.290;2022-08-21T01:55:23;19.00;99.90
6439;DHT22;3252;52.540;13.290;2022-08-21T01:57:25;19.00;99.90
6439;DHT22;3252;52.540;13.290;2022-08-21T01:59:28;19.00;99.90
6439;DHT22;3252;52.540;13.290;2022-08-21T02:01:30;19.00;99.90
6439;DHT22;3252;52.540;13.290;2022-08-21T02:03:32;19.00;99.90
6439;DHT22;3252;52.540;13.290;2022-08-21T02:05:34;18.90;99.90
6439;DHT22;3252;52.540;13.290;2022-08-21T02:07:37;18.90;99.90
6439;DHT22;3252;52.540;13.290;2022-08-21T02:09:39;18.90;99.90
6439;DHT22;3252;52.540;13.290;2022-08-21T02:11:45;18.90;99.90
6439;DHT22;3252;52.540;13.290;2022-08-21T02:13:47;18.90;99.90
6439;DHT22;3252;52.540;13.290;2022-08-21T02:15:49;18.90;99.90
6439;DHT22;3252;52.540;13.290;2022-08-21T02:17:53;18.80;99.90
6439;DHT22;3252;52.540;13.290;2022-08-21T02:19:56;18.80;99.90
6439;DHT22;3252;52.540;13.290;2022-08-21T02:21:58;18.80;99.90
6439;DHT22;3252;52.540;13.290;2022-08-21T02:24:00;18.80;99.90
6439;DHT22;3252;52.540;13.290;2022-08-21T02:26:04;18.80;99.90
6439;DHT22;3252;52.540;13.290;2022-08-21T02:28:11;18.80;99.90
6439;DHT22;3252;52.540;13.290;2022-08-21T02:30:16;18.70;99.90
6439;DHT22;3252;52.540;13.290;2022-08-21T02:32:18;18.70;99.90
6439;DHT22;3252;52.540;13.290;2022-08-21T02:34:22;18.70;99.90
6439;DHT22;3252;52.540;13.290;2022-08-21T02:36:24;18.70;99.90
6439;DHT22;3252;52.540;13.290;2022-08-21T02:38:28;18.70;99.90
6439;DHT22;3252;52.540;13.290;2022-08-21T02:40:35;18.70;99.90
6439;DHT22;3252;52.540;13.290;2022-08-21T02:42:38;18.70;99.90
6439;DHT22;3252;52.540;13.290;2022-08-21T02:44:42;18.60;99.90
6439;DHT22;3252;52.540;13.290;2022-08-21T02:46:44;18.60;99.90
6439;DHT22;3252;52.540;13.290;2022-08-21T02:48:46;18.60;99.90
6439;DHT22;3252;52.540;13.290;2022-08-21T02:50:52;18.60;99.90
6439;DHT22;3252;52.540;13.290;2022-08-21T02:52:56;18.50;99.90
6439;DHT22;3252;52.540;13.290;2022-08-21T02:54:58;18.50;99.90
6439;DHT22;3252;52.540;13.290;2022-08-21T02:57:00;18.50;99.90
6439;DHT22;3252;52.540;13.290;2022-08-21T02:59:02;18.50;99.90
6439;DHT22;3252;52.540;13.290;2022-08-21T03:01:07;18.40;99.90
6439;DHT22;3252;52.540;13.290;2022-08-21T03:03:10;18.40;99.90
6439;DHT22;3252;52.540;13.290;2022-08-21T03:05:14;18.40;99.90
6439;DHT22;3252;52.540;13.290;2022-08-21T03:07:16;18.30;99.90
6439;DHT22;3252;52.540;13.290;2022-08-21T03:09:18;18.30;99.90
6439;DHT22;3252;52.540;13.290;2022-08-21T03:11:20;18.30;99.90
6439;DHT22;3252;52.540;13.290;2022-08-21T03:13:22;18.30;99.90
6439;DHT22;3252;52.540;13.290;2022-08-21T03:15:24;18.20;99.90
6439;DHT22;3252;52.540;13.290;2022-08-21T03:17:28;18.20;99.90
6439;DHT22;3252;52.540;13.290;2022-08-21T03:19:30;18.20;99.90
6439;DHT22;3252;52.540;13.290;2022-08-21T03:21:33;18.20;99.90
6439;DHT22;3252;52.540;13.290;2022-08-21T03:23:35;18.20;99.90
6439;DHT22;3252;52.540;13.290;2022-08-21T03:25:41;18.20;99.90
6439;DHT22;3252;52.540;13.290;2022-08-21T03:27:44;18.10;99.90
6439;DHT22;3252;52.540;13.290;2022-08-21T03:29:47;18.10;99.90
6439;DHT22;3252;52.540;13.290;2022-08-21T03:31:49;18.00;99.90
6439;DHT22;3252;52.540;13.290;2022-08-21T03:33:55;18.00;99.90
6439;DHT22;3252;52.540;13.290;2022-08-21T03:36:00;18.00;99.90
6439;DHT22;3252;52.540;13.290;2022-08-21T03:38:03;18.00;99.90
6439;DHT22;3252;52.540;13.290;2022-08-21T03:40:07;17.90;99.90
6439;DHT22;3252;52.540;13.290;2022-08-21T03:42:09;17.90;99.90
6439;DHT22;3252;52.540;13.290;2022-08-21T03:44:11;17.90;99.90
6439;DHT22;3252;52.540;13.290;2022-08-21T03:46:13;17.90;99.90
6439;DHT22;3252;52.540;13.290;2022-08-21T03:48:15;17.80;99.90
6439;DHT22;3252;52.540;13.290;2022-08-21T03:50:20;17.70;99.90
6439;DHT22;3252;52.540;13.290;2022-08-21T03:52:22;17.60;99.90
6439;DHT22;3252;52.540;13.290;2022-08-21T03:54:24;17.50;99.90
6439;DHT22;3252;52.540;13.290;2022-08-21T03:56:26;17.50;99.90
6439;DHT22;3252;52.540;13.290;2022-08-21T03:58:28;17.30;99.90
6439;DHT22;3252;52.540;13.290;2022-08-21T04:00:31;17.40;99.90
6439;DHT22;3252;52.540;13.290;2022-08-21T04:02:33;17.30;99.90
6439;DHT22;3252;52.540;13.290;2022-08-21T04:04:36;17.30;99.90
6439;DHT22;3252;52.540;13.290;2022-08-21T04:06:40;17.30;99.90
6439;DHT22;3252;52.540;13.290;2022-08-21T04:08:42;17.20;99.90
6439;DHT22;3252;52.540;13.290;2022-08-21T04:10:46;17.20;99.90
6439;DHT22;3252;52.540;13.290;2022-08-21T04:12:48;17.20;99.90
6439;DHT22;3252;52.540;13.290;2022-08-21T04:14:50;17.20;99.90
6439;DHT22;3252;52.540;13.290;2022-08-21T04:16:52;17.30;99.90
6439;DHT22;3252;52.540;13.290;2022-08-21T04:18:54;17.30;99.90
6439;DHT22;3252;52.540;13.290;2022-08-21T04:20:58;17.30;99.90
6439;DHT22;3252;52.540;13.290;2022-08-21T04:23:02;17.30;99.90
6439;DHT22;3252;52.540;13.290;2022-08-21T04:25:06;17.30;99.90
6439;DHT22;3252;52.540;13.290;2022-08-21T04:27:08;17.30;99.90
6439;DHT22;3252;52.540;13.290;2022-08-21T04:29:10;17.30;99.90
6439;DHT22;3252;52.540;13.290;2022-08-21T04:31:12;17.30;99.90
6439;DHT22;3252;52.540;13.290;2022-08-21T04:33:14;17.40;99.90
6439;DHT22;3252;52.540;13.290;2022-08-21T04:35:19;17.30;99.90
6439;DHT22;3252;52.540;13.290;2022-08-21T04:37:21;17.20;99.90
6439;DHT22;3252;52.540;13.290;2022-08-21T04:39:25;17.20;99.90
6439;DHT22;3252;52.540;13.290;2022-08-21T04:41:27;17.20;99.90
6439;DHT22;3252;52.540;13.290;2022-08-21T04:43:29;17.20;99.90
6439;DHT22;3252;52.540;13.290;2022-08-21T04:45:33;17.20;99.90
6439;DHT22;3252;52.540;13.290;2022-08-21T04:47:35;17.30;99.90
6439;DHT22;3252;52.540;13.290;2022-08-21T04:49:37;17.30;99.90
6439;DHT22;3252;52.540;13.290;2022-08-21T04:51:39;17.30;99.90
6439;DHT22;3252;52.540;13.290;2022-08-21T04:53:44;17.30;99.90
6439;DHT22;3252;52.540;13.290;2022-08-21T04:55:48;17.30;99.90
6439;DHT22;3252;52.540;13.290;2022-08-21T04:57:50;17.30;99.90
6439;DHT22;3252;52.540;13.290;2022-08-21T04:59:54;17.30;99.90
6439;DHT22;3252;52.540;13.290;2022-08-21T05:01:56;17.30;99.90
6439;DHT22;3252;52.540;13.290;2022-08-21T05:04:00;17.40;99.90
6439;DHT22;3252;52.540;13.290;2022-08-21T05:06:08;17.40;99.90
6439;DHT22;3252;52.540;13.290;2022-08-21T05:08:13;17.40;99.90
6439;DHT22;3252;52.540;13.290;2022-08-21T05:10:17;17.40;99.90
6439;DHT22;3252;52.540;13.290;2022-08-21T05:12:21;17.40;99.90
6439;DHT22;3252;52.540;13.290;2022-08-21T05:14:23;17.40;99.90
6439;DHT22;3252;52.540;13.290;2022-08-21T05:16:25;17.50;99.90
6439;DHT22;3252;52.540;13.290;2022-08-21T05:18:28;17.50;99.90
6439;DHT22;3252;52.540;13.290;2022-08-21T05:20:30;17.50;99.90
6439;DHT22;3252;52.540;13.290;2022-08-21T05:22:35;17.50;99.90
6439;DHT22;3252;52.540;13.290;2022-08-21T05:24:36;17.50;99.90
6439;DHT22;3252;52.540;13.290;2022-08-21T05:26:39;17.50;99.90
6439;DHT22;3252;52.540;13.290;2022-08-21T05:28:43;17.50;99.90
6439;DHT22;3252;52.540;13.290;2022-08-21T05:30:45;17.50;99.90
6439;DHT22;3252;52.540;13.290;2022-08-21T05:32:47;17.60;99.90
6439;DHT22;3252;52.540;13.290;2022-08-21T05:34:49;17.60;99.90
6439;DHT22;3252;52.540;13.290;2022-08-21T05:36:51;17.50;99.90
6439;DHT22;3252;52.540;13.290;2022-08-21T05:38:53;17.60;99.90
6439;DHT22;3252;52.540;13.290;2022-08-21T05:40:55;17.60;99.90
6439;DHT22;3252;52.540;13.290;2022-08-21T05:42:57;17.60;99.90
6439;DHT22;3252;52.540;13.290;2022-08-21T05:45:01;17.70;99.90
6439;DHT22;3252;52.540;13.290;2022-08-21T05:47:05;17.70;99.90
6439;DHT22;3252;52.540;13.290;2022-08-21T05:49:07;17.70;99.90
6439;DHT22;3252;52.540;13.290;2022-08-21T05:51:11;17.70;99.90
6439;DHT22;3252;52.540;13.290;2022-08-21T05:53:14;17.70;99.90
6439;DHT22;3252;52.540;13.290;2022-08-21T05:55:17;17.70;99.90
6439;DHT22;3252;52.540;13.290;2022-08-21T05:57:19;17.80;99.90
6439;DHT22;3252;52.540;13.290;2022-08-21T05:59:21;17.80;99.90
6439;DHT22;3252;52.540;13.290;2022-08-21T06:01:24;17.80;99.90
6439;DHT22;3252;52.540;13.290;2022-08-21T06:03:29;17.80;99.90
6439;DHT22;3252;52.540;13.290;2022-08-21T06:05:31;17.90;99.90
6439;DHT22;3252;52.540;13.290;2022-08-21T06:07:33;17.90;99.90
6439;DHT22;3252;52.540;13.290;2022-08-21T06:09:35;17.90;99.90
6439;DHT22;3252;52.540;13.290;2022-08-21T06:11:38;17.90;99.90
6439;DHT22;3252;52.540;13.290;2022-08-21T06:13:40;18.00;99.90
6439;DHT22;3252;52.540;13.290;2022-08-21T06:15:42;17.90;99.90
6439;DHT22;3252;52.540;13.290;2022-08-21T06:17:46;18.00;99.90
6439;DHT22;3252;52.540;13.290;2022-08-21T06:19:50;18.00;99.90
6439;DHT22;3252;52.540;13.290;2022-08-21T06:21:52;18.00;99.90
6439;DHT22;3252;52.540;13.290;2022-08-21T06:23:54;18.00;99.90
6439;DHT22;3252;52.540;13.290;2022-08-21T06:25:56;18.00;99.90
6439;DHT22;3252;52.540;13.290;2022-08-21T06:28:03;18.10;99.90
6439;DHT22;3252;52.540;13.290;2022-08-21T06:30:08;18.10;99.90
6439;DHT22;3252;52.540;13.290;2022-08-21T06:32:11;18.00;99.90
6439;DHT22;3252;52.540;13.290;2022-08-21T06:34:15;18.10;99.90
6439;DHT22;3252;52.540;13.290;2022-08-21T06:36:18;18.10;99.90
6439;DHT22;3252;52.540;13.290;2022-08-21T06:38:21;18.20;99.90
6439;DHT22;3252;52.540;13.290;2022-08-21T06:40:23;18.20;99.90
6439;DHT22;3252;52.540;13.290;2022-08-21T06:42:29;18.20;99.90
6439;DHT22;3252;52.540;13.290;2022-08-21T06:44:31;18.20;99.90
6439;DHT22;3252;52.540;13.290;2022-08-21T06:46:33;18.20;99.90
6439;DHT22;3252;52.540;13.290;2022-08-21T06:48:35;18.30;99.90
6439;DHT22;3252;52.540;13.290;2022-08-21T06:50:39;18.30;99.90
6439;DHT22;3252;52.540;13.290;2022-08-21T06:52:41;18.30;99.90
6439;DHT22;3252;52.540;13.290;2022-08-21T06:54:43;18.30;99.90
6439;DHT22;3252;52.540;13.290;2022-08-21T06:56:45;18.30;99.90
6439;DHT22;3252;52.540;13.290;2022-08-21T06:58:47;18.40;99.90
6439;DHT22;3252;52.540;13.290;2022-08-21T07:00:50;18.40;99.90
6439;DHT22;3252;52.540;13.290;2022-08-21T07:02:52;18.50;99.90
6439;DHT22;3252;52.540;13.290;2022-08-21T07:04:54;18.60;99.90
6439;DHT22;3252;52.540;13.290;2022-08-21T07:06:58;18.60;99.90
6439;DHT22;3252;52.540;13.290;2022-08-21T07:09:00;18.70;99.90
6439;DHT22;3252;52.540;13.290;2022-08-21T07:11:09;18.70;99.90
6439;DHT22;3252;52.540;13.290;2022-08-21T07:13:12;18.80;99.90
6439;DHT22;3252;52.540;13.290;2022-08-21T07:15:14;18.80;99.90
6439;DHT22;3252;52.540;13.290;2022-08-21T07:17:16;18.90;99.90
6439;DHT22;3252;52.540;13.290;2022-08-21T07:19:18;18.90;99.90
6439;DHT22;3252;52.540;13.290;2022-08-21T07:21:21;19.00;99.90
6439;DHT22;3252;52.540;13.290;2022-08-21T07:23:27;19.10;99.90
6439;DHT22;3252;52.540;13.290;2022-08-21T07:25:30;19.10;99.90
6439;DHT22;3252;52.540;13.290;2022-08-21T07:27:32;19.20;99.90
6439;DHT22;3252;52.540;13.290;2022-08-21T07:29:34;19.20;99.90
6439;DHT22;3252;52.540;13.290;2022-08-21T07:31:36;19.30;99.90
6439;DHT22;3252;52.540;13.290;2022-08-21T07:33:38;19.30;99.90
6439;DHT22;3252;52.540;13.290;2022-08-21T07:35:40;19.30;99.90
6439;DHT22;3252;52.540;13.290;2022-08-21T07:37:42;19.30;99.90
6439;DHT22;3252;52.540;13.290;2022-08-21T07:39:45;19.40;99.90
6439;DHT22;3252;52.540;13.290;2022-08-21T07:41:49;19.40;99.90
6439;DHT22;3252;52.540;13.290;2022-08-21T07:43:52;19.40;99.90
6439;DHT22;3252;52.540;13.290;2022-08-21T07:45:54;19.50;99.90
6439;DHT22;3252;52.540;13.290;2022-08-21T07:47:57;19.60;99.90
6439;DHT22;3252;52.540;13.290;2022-08-21T07:49:59;19.60;99.90
6439;DHT22;3252;52.540;13.290;2022-08-21T07:52:01;19.70;99.90
6439;DHT22;3252;52.540;13.290;2022-08-21T07:54:03;19.70;99.90
6439;DHT22;3252;52.540;13.290;2022-08-21T07:56:07;19.80;99.90
6439;DHT22;3252;52.540;13.290;2022-08-21T07:58:11;19.90;99.90
6439;DHT22;3252;52.540;13.290;2022-08-21T08:00:15;19.90;99.90
6439;DHT22;3252;52.540;13.290;2022-08-21T08:02:23;20.00;99.90
6439;DHT22;3252;52.540;13.290;2022-08-21T08:04:25;20.00;99.90
6439;DHT22;3252;52.540;13.290;2022-08-21T08:06:27;20.10;99.90
6439;DHT22;3252;52.540;13.290;2022-08-21T08:08:29;20.20;99.90
6439;DHT22;3252;52.540;13.290;2022-08-21T08:10:31;20.20;99.90
6439;DHT22;3252;52.540;13.290;2022-08-21T08:12:35;20.30;99.90
6439;DHT22;3252;52.540;13.290;2022-08-21T08:14:37;20.40;99.90
6439;DHT22;3252;52.540;13.290;2022-08-21T08:16:40;20.30;99.90
6439;DHT22;3252;52.540;13.290;2022-08-21T08:18:42;20.40;99.90
6439;DHT22;3252;52.540;13.290;2022-08-21T08:20:45;20.40;99.90
6439;DHT22;3252;52.540;13.290;2022-08-21T08:22:47;20.40;99.90
6439;DHT22;3252;52.540;13.290;2022-08-21T08:24:51;20.40;99.90
6439;DHT22;3252;52.540;13.290;2022-08-21T08:26:53;20.40;99.90
6439;DHT22;3252;52.540;13.290;2022-08-21T08:28:58;20.40;99.90
6439;DHT22;3252;52.540;13.290;2022-08-21T08:31:01;20.40;99.90
6439;DHT22;3252;52.540;13.290;2022-08-21T08:33:04;20.50;99.90
6439;DHT22;3252;52.540;13.290;2022-08-21T08:35:07;20.60;99.90
6439;DHT22;3252;52.540;13.290;2022-08-21T08:37:10;20.70;99.90
6439;DHT22;3252;52.540;13.290;2022-08-21T08:39:12;20.70;99.90
6439;DHT22;3252;52.540;13.290;2022-08-21T08:41:16;20.70;99.90
6439;DHT22;3252;52.540;13.290;2022-08-21T08:43:19;20.70;99.90
6439;DHT22;3252;52.540;13.290;2022-08-21T08:45:23;20.80;99.90
6439;DHT22;3252;52.540;13.290;2022-08-21T08:47:27;20.80;99.40
6439;DHT22;3252;52.540;13.290;2022-08-21T08:49:36;20.80;98.60
6439;DHT22;3252;52.540;13.290;2022-08-21T08:51:44;20.80;98.90
6439;DHT22;3252;52.540;13.290;2022-08-21T08:53:51;20.80;98.50
6439;DHT22;3252;52.540;13.290;2022-08-21T08:55:54;20.70;99.00
6439;DHT22;3252;52.540;13.290;2022-08-21T08:57:57;20.80;98.30
6439;DHT22;3252;52.540;13.290;2022-08-21T09:00:01;20.80;97.10
6439;DHT22;3252;52.540;13.290;2022-08-21T09:02:06;20.90;98.40
6439;DHT22;3252;52.540;13.290;2022-08-21T09:04:10;20.90;98.80
6439;DHT22;3252;52.540;13.290;2022-08-21T09:06:22;21.00;98.40
6439;DHT22;3252;52.540;13.290;2022-08-21T09:08:36;21.00;98.70
6439;DHT22;3252;52.540;13.290;2022-08-21T09:10:47;21.10;98.10
6439;DHT22;3252;52.540;13.290;2022-08-21T09:13:03;21.10;96.90
6439;DHT22;3252;52.540;13.290;2022-08-21T09:15:16;21.10;97.10
6439;DHT22;3252;52.540;13.290;2022-08-21T09:17:34;21.20;96.10
6439;DHT22;3252;52.540;13.290;2022-08-21T09:19:51;21.10;95.70
6439;DHT22;3252;52.540;13.290;2022-08-21T09:22:03;21.10;96.50
6439;DHT22;3252;52.540;13.290;2022-08-21T09:24:22;21.20;97.20
6439;DHT22;3252;52.540;13.290;2022-08-21T09:26:31;21.20;96.30
6439;DHT22;3252;52.540;13.290;2022-08-21T09:28:36;21.20;96.70
6439;DHT22;3252;52.540;13.290;2022-08-21T09:30:39;21.30;96.10
6439;DHT22;3252;52.540;13.290;2022-08-21T09:32:43;21.30;95.50
6439;DHT22;3252;52.540;13.290;2022-08-21T09:34:57;21.30;96.00
6439;DHT22;3252;52.540;13.290;2022-08-21T09:36:59;21.30;96.40
6439;DHT22;3252;52.540;13.290;2022-08-21T09:39:03;21.30;94.90
6439;DHT22;3252;52.540;13.290;2022-08-21T09:41:08;21.40;94.80
6439;DHT22;3252;52.540;13.290;2022-08-21T09:43:17;21.40;94.90
6439;DHT22;3252;52.540;13.290;2022-08-21T09:45:19;21.50;94.80
6439;DHT22;3252;52.540;13.290;2022-08-21T09:47:26;21.60;95.00
6439;DHT22;3252;52.540;13.290;2022-08-21T09:49:31;21.60;95.20
6439;DHT22;3252;52.540;13.290;2022-08-21T09:51:36;21.70;95.20
6439;DHT22;3252;52.540;13.290;2022-08-21T09:53:44;21.80;95.00
6439;DHT22;3252;52.540;13.290;2022-08-21T09:55:49;21.80;94.60
6439;DHT22;3252;52.540;13.290;2022-08-21T09:58:10;21.90;93.30
6439;DHT22;3252;52.540;13.290;2022-08-21T10:00:20;22.00;93.00
6439;DHT22;3252;52.540;13.290;2022-08-21T10:02:28;22.10;91.70
6439;DHT22;3252;52.540;13.290;2022-08-21T10:04:34;22.10;91.80
6439;DHT22;3252;52.540;13.290;2022-08-21T10:06:36;22.10;86.00
6439;DHT22;3252;52.540;13.290;2022-08-21T10:08:40;22.10;83.40
6439;DHT22;3252;52.540;13.290;2022-08-21T10:10:42;22.10;84.50
6439;DHT22;3252;52.540;13.290;2022-08-21T10:12:49;22.30;85.00
6439;DHT22;3252;52.540;13.290;2022-08-21T10:15:04;22.30;85.70
6439;DHT22;3252;52.540;13.290;2022-08-21T10:17:15;22.40;88.00
6439;DHT22;3252;52.540;13.290;2022-08-21T10:19:26;22.50;90.80
6439;DHT22;3252;52.540;13.290;2022-08-21T10:21:35;22.70;90.70
6439;DHT22;3252;52.540;13.290;2022-08-21T10:23:51;22.80;88.00
6439;DHT22;3252;52.540;13.290;2022-08-21T10:26:01;22.80;85.40
6439;DHT22;3252;52.540;13.290;2022-08-21T10:28:10;22.90;84.60
6439;DHT22;3252;52.540;13.290;2022-08-21T10:30:36;23.00;83.40
6439;DHT22;3252;52.540;13.290;2022-08-21T10:32:52;23.00;82.90
6439;DHT22;3252;52.540;13.290;2022-08-21T10:35:04;23.10;83.30
6439;DHT22;3252;52.540;13.290;2022-08-21T10:37:23;23.10;81.50
6439;DHT22;3252;52.540;13.290;2022-08-21T10:39:32;23.20;81.30
6439;DHT22;3252;52.540;13.290;2022-08-21T10:41:48;23.20;76.40
6439;DHT22;3252;52.540;13.290;2022-08-21T10:43:59;23.20;70.20
6439;DHT22;3252;52.540;13.290;2022-08-21T10:46:10;23.20;72.50
6439;DHT22;3252;52.540;13.290;2022-08-21T10:48:22;23.20;72.90
6439;DHT22;3252;52.540;13.290;2022-08-21T10:50:30;23.20;70.60
6439;DHT22;3252;52.540;13.290;2022-08-21T10:52:47;23.30;71.10
6439;DHT22;3252;52.540;13.290;2022-08-21T10:54:59;23.40;72.30
6439;DHT22;3252;52.540;13.290;2022-08-21T10:57:16;23.40;70.30
6439;DHT22;3252;52.540;13.290;2022-08-21T10:59:26;23.50;69.40
6439;DHT22;3252;52.540;13.290;2022-08-21T11:01:34;23.50;68.80
6439;DHT22;3252;52.540;13.290;2022-08-21T11:03:42;23.50;69.20
6439;DHT22;3252;52.540;13.290;2022-08-21T11:05:50;23.60;68.70
6439;DHT22;3252;52.540;13.290;2022-08-21T11:07:57;23.70;68.10
6439;DHT22;3252;52.540;13.290;2022-08-21T11:10:05;23.60;68.80
6439;DHT22;3252;52.540;13.290;2022-08-21T11:12:19;23.70;66.60
6439;DHT22;3252;52.540;13.290;2022-08-21T11:14:33;23.70;61.50
6439;DHT22;3252;52.540;13.290;2022-08-21T11:16:39;23.80;64.00
6439;DHT22;3252;52.540;13.290;2022-08-21T11:18:47;23.80;65.00
6439;DHT22;3252;52.540;13.290;2022-08-21T11:21:04;23.90;66.00
6439;DHT22;3252;52.540;13.290;2022-08-21T11:23:17;24.00;62.30
6439;DHT22;3252;52.540;13.290;2022-08-21T11:25:23;23.90;62.10
6439;DHT22;3252;52.540;13.290;2022-08-21T11:27:33;24.00;60.80
6439;DHT22;3252;52.540;13.290;2022-08-21T11:29:39;23.90;60.80
6439;DHT22;3252;52.540;13.290;2022-08-21T11:31:51;24.00;61.90
6439;DHT22;3252;52.540;13.290;2022-08-21T11:34:05;24.00;57.60
6439;DHT22;3252;52.540;13.290;2022-08-21T11:36:15;24.10;56.60
6439;DHT22;3252;52.540;13.290;2022-08-21T11:38:28;24.20;55.30
6439;DHT22;3252;52.540;13.290;2022-08-21T11:40:44;24.20;54.30
6439;DHT22;3252;52.540;13.290;2022-08-21T11:42:55;24.20;53.40
6439;DHT22;3252;52.540;13.290;2022-08-21T11:45:12;24.20;56.60
6439;DHT22;3252;52.540;13.290;2022-08-21T11:47:22;24.20;56.70
6439;DHT22;3252;52.540;13.290;2022-08-21T11:49:49;24.20;53.80
6439;DHT22;3252;52.540;13.290;2022-08-21T11:52:01;24.20;51.90
6439;DHT22;3252;52.540;13.290;2022-08-21T11:54:16;24.20;53.30
6439;DHT22;3252;52.540;13.290;2022-08-21T11:56:27;24.10;53.80
6439;DHT22;3252;52.540;13.290;2022-08-21T11:58:35;24.10;53.90
6439;DHT22;3252;52.540;13.290;2022-08-21T12:00:42;24.00;55.40
6439;DHT22;3252;52.540;13.290;2022-08-21T12:02:48;24.00;56.30
6439;DHT22;3252;52.540;13.290;2022-08-21T12:04:54;24.00;57.90
6439;DHT22;3252;52.540;13.290;2022-08-21T12:07:08;24.10;60.70
6439;DHT22;3252;52.540;13.290;2022-08-21T12:09:30;24.20;59.80
6439;DHT22;3252;52.540;13.290;2022-08-21T12:11:46;24.20;60.20
6439;DHT22;3252;52.540;13.290;2022-08-21T12:13:55;24.30;60.00
6439;DHT22;3252;52.540;13.290;2022-08-21T12:16:06;24.30;57.30
6439;DHT22;3252;52.540;13.290;2022-08-21T12:18:21;24.40;56.60
6439;DHT22;3252;52.540;13.290;2022-08-21T12:20:38;24.40;58.10
6439;DHT22;3252;52.540;13.290;2022-08-21T12:22:49;24.40;58.10
6439;DHT22;3252;52.540;13.290;2022-08-21T12:25:05;24.50;59.30
6439;DHT22;3252;52.540;13.290;2022-08-21T12:27:20;24.50;58.60
6439;DHT22;3252;52.540;13.290;2022-08-21T12:29:28;24.60;56.30
6439;DHT22;3252;52.540;13.290;2022-08-21T12:31:31;24.60;56.60
6439;DHT22;3252;52.540;13.290;2022-08-21T12:33:37;24.70;58.70
6439;DHT22;3252;52.540;13.290;2022-08-21T12:35:41;24.70;55.20
6439;DHT22;3252;52.540;13.290;2022-08-21T12:37:47;24.80;55.00
6439;DHT22;3252;52.540;13.290;2022-08-21T12:39:54;24.80;56.50
6439;DHT22;3252;52.540;13.290;2022-08-21T12:42:00;24.80;58.40
6439;DHT22;3252;52.540;13.290;2022-08-21T12:44:07;24.90;58.60
6439;DHT22;3252;52.540;13.290;2022-08-21T12:46:15;24.80;57.50
6439;DHT22;3252;52.540;13.290;2022-08-21T12:48:22;25.00;57.60
6439;DHT22;3252;52.540;13.290;2022-08-21T12:50:41;24.90;57.50
6439;DHT22;3252;52.540;13.290;2022-08-21T12:52:48;25.00;57.10
6439;DHT22;3252;52.540;13.290;2022-08-21T12:54:54;25.00;57.70
6439;DHT22;3252;52.540;13.290;2022-08-21T12:57:01;25.00;57.70
6439;DHT22;3252;52.540;13.290;2022-08-21T12:59:05;25.00;57.90
6439;DHT22;3252;52.540;13.290;2022-08-21T13:01:17;25.10;57.60
6439;DHT22;3252;52.540;13.290;2022-08-21T13:03:21;25.20;58.30
6439;DHT22;3252;52.540;13.290;2022-08-21T13:05:30;25.20;57.20
6439;DHT22;3252;52.540;13.290;2022-08-21T13:07:35;25.20;58.20
6439;DHT22;3252;52.540;13.290;2022-08-21T13:09:43;25.20;56.80
6439;DHT22;3252;52.540;13.290;2022-08-21T13:11:49;25.10;57.30
6439;DHT22;3252;52.540;13.290;2022-08-21T13:13:53;25.10;56.10
6439;DHT22;3252;52.540;13.290;2022-08-21T13:16:00;25.10;57.80
6439;DHT22;3252;52.540;13.290;2022-08-21T13:18:05;25.00;57.90
6439;DHT22;3252;52.540;13.290;2022-08-21T13:20:19;25.00;58.70
6439;DHT22;3252;52.540;13.290;2022-08-21T13:22:24;24.90;58.00